This is the latest recevied weather packets stored in our database for station/object IW1AXR-3. If no packets are shown the sender has not sent any weather packets the latest 10 day(s).
| Time | Temp. | Humidity | Pressure | Rain* | Wind** | Luminosity | Snow |
|---|---|---|---|---|---|---|---|
| 1777680074 | 7.22° C | 73% | 1024.4 hPa | - | - | - | - |
| 1777679471 | 8.33° C | 72% | 1024.5 hPa | - | - | - | - |
| 1777678867 | 7.78° C | 74% | 1024.5 hPa | - | - | - | - |
| 1777677057 | 8.33° C | 77% | 1024.7 hPa | - | - | - | - |
| 1777676454 | 7.78° C | 81% | 1024.7 hPa | - | - | - | - |
| 1777675850 | 7.22° C | 87% | 1024.8 hPa | - | - | - | - |
| 1777675247 | 6.67° C | 94% | 1024.8 hPa | - | - | - | - |
| 1777674644 | 6.67° C | 95% | 1024.9 hPa | - | - | - | - |
| 1777674041 | 6.11° C | 95% | 1024.9 hPa | - | - | - | - |
| 1777672833 | 6.67° C | 92% | 1024.8 hPa | - | - | - | - |
| 1777669211 | 7.78° C | 83% | 1024.6 hPa | - | - | - | - |
| 1777668609 | 8.33° C | 82% | 1024.5 hPa | - | - | - | - |
| 1777668004 | 8.89° C | 78% | 1024.4 hPa | - | - | - | - |
| 1777665590 | 10° C | 80% | 1024.3 hPa | - | - | - | - |
| 1777664988 | 10° C | 81% | 1024.3 hPa | - | - | - | - |
| 1777663777 | 10° C | 81% | 1024.2 hPa | - | - | - | - |
| 1777662570 | 10° C | 83% | 1024.1 hPa | - | - | - | - |
| 1777660760 | 10.56° C | 81% | 1023.9 hPa | - | - | - | - |
| 1777660156 | 10.56° C | 79% | 1023.8 hPa | - | - | - | - |
| 1777657742 | 11.11° C | 74% | 1023.7 hPa | - | - | - | - |
| 1777656537 | 12.22° C | 67% | 1023.7 hPa | - | - | - | - |
| 1777655932 | 12.78° C | 61% | 1023.6 hPa | - | - | - | - |
| 1777654122 | 14.44° C | 59% | 1023.7 hPa | - | - | - | - |
| 1777652914 | 15.56° C | 55% | 1023.8 hPa | - | - | - | - |
| 1777652310 | 15.56° C | 53% | 1023.8 hPa | - | - | - | - |
* Rain since midnight (hover to see other rain measurements)
** Current wind speed in m/s (hover to see current wind gust speed)